Waldeck, Canada
Current Conditions -  °F | °C
As of 12:00 PM on Thursday 27 Nov 2014 (Local Time) from CYYN Reporting Station
Light Snow Light Snow  
Wind Chill:   Ceiling: 1300
Heat Index: 21°   Visibility: 0.75mi
Dew Point: 19°   Wind: 20mph
Humidity: 93%   Direction: 110°ESE
Pressure: 29.79"   Gusts: 25mph
Location:  50.36°N, 107.59°W
Report Text: CYYN 271800Z AUTO 11017G22KT 3/4SM -SN VV013 M06/M07 A2979 RMK SLP130
Loading
Personal Weather Stations






























Interactive Weather Map New forecast layout! Learn more

10-Day Weather Forecast

Advertisements
Track Severe Weather on mobile